createdAt,value
2022-10-01T00:01:15.517Z,20.83
2022-10-01T00:03:43.095Z,33.38
2022-10-01T00:06:13.843Z,15.27
2022-10-01T00:08:42.123Z,20.30
2022-10-01T00:11:14.487Z,20.65
2022-10-01T00:13:46.128Z,16.13
2022-10-01T00:16:15.251Z,14.32
2022-10-01T00:18:43.861Z,26.98
2022-10-01T00:21:13.224Z,16.70
2022-10-01T00:26:14.760Z,14.38
2022-10-01T00:28:42.505Z,47.17
2022-10-01T00:31:09.964Z,13.90
2022-10-01T00:33:37.293Z,16.30
2022-10-01T00:36:05.467Z,14.27
2022-10-01T00:38:32.720Z,14.13
2022-10-01T00:40:59.275Z,16.25
2022-10-01T00:43:28.756Z,19.20
2022-10-01T00:45:59.435Z,19.73
2022-10-01T00:48:28.311Z,13.60
2022-10-01T00:50:54.731Z,14.55
2022-10-01T00:53:21.904Z,14.52
2022-10-01T00:55:56.944Z,13.02
2022-10-01T00:58:25.134Z,18.30
2022-10-01T01:00:54.618Z,15.00
2022-10-01T01:03:21.522Z,16.88
2022-10-01T01:05:50.119Z,23.25
2022-10-01T01:08:17.804Z,20.50
2022-10-01T01:11:03.876Z,27.85
2022-10-01T01:13:39.232Z,12.40
2022-10-01T01:16:33.887Z,31.52
2022-10-01T01:19:17.431Z,29.65
2022-10-01T01:21:47.470Z,19.52
2022-10-01T01:24:32.739Z,11.40
2022-10-01T01:27:11.601Z,19.50
2022-10-01T01:29:53.014Z,11.98
2022-10-01T01:32:35.068Z,11.50
2022-10-01T01:35:06.658Z,9.95
2022-10-01T01:37:37.911Z,11.05
2022-10-01T01:40:10.118Z,11.32
2022-10-01T01:42:40.964Z,10.48
2022-10-01T01:45:13.568Z,11.32
2022-10-01T01:47:42.523Z,12.60
2022-10-01T01:50:10.804Z,10.98
2022-10-01T01:52:38.305Z,11.82
2022-10-01T01:55:08.555Z,11.45
2022-10-01T01:57:41.627Z,11.57
2022-10-01T02:00:36.549Z,11.40
2022-10-01T02:03:03.804Z,15.48
2022-10-01T02:05:39.862Z,10.75
2022-10-01T02:08:15.295Z,12.63
2022-10-01T02:11:16.243Z,11.18
2022-10-01T02:13:54.391Z,10.52
2022-10-01T02:16:39.387Z,11.10
2022-10-01T02:19:23.256Z,9.82
2022-10-01T02:22:05.501Z,10.05
2022-10-01T02:27:00.023Z,9.82
2022-10-01T02:29:28.599Z,10.65
2022-10-01T02:31:57.222Z,13.43
2022-10-01T02:34:28.739Z,9.45
2022-10-01T02:36:57.488Z,10.45
2022-10-01T02:39:27.564Z,10.50
2022-10-01T02:41:55.590Z,10.93
2022-10-01T02:44:29.190Z,11.18
2022-10-01T02:47:12.345Z,10.95
2022-10-01T02:49:41.224Z,10.98
2022-10-01T02:52:13.535Z,8.98
2022-10-01T02:54:47.096Z,10.82
2022-10-01T02:57:27.426Z,9.52
2022-10-01T03:00:00.013Z,11.18
2022-10-01T03:02:28.784Z,9.65
2022-10-01T03:04:59.050Z,11.00
2022-10-01T03:07:26.637Z,9.00
2022-10-01T03:09:53.225Z,10.20
2022-10-01T03:12:20.189Z,9.88
2022-10-01T03:14:46.562Z,9.25
2022-10-01T03:17:14.369Z,8.63
2022-10-01T03:19:41.160Z,12.55
2022-10-01T03:22:08.729Z,7.88
2022-10-01T03:24:35.296Z,8.60
2022-10-01T03:27:01.681Z,8.10
2022-10-01T03:29:27.983Z,8.85
2022-10-01T03:31:54.923Z,8.18
2022-10-01T03:34:22.330Z,7.82
2022-10-01T03:36:48.881Z,8.65
2022-10-01T03:39:15.846Z,7.35
2022-10-01T03:41:42.230Z,7.45
2022-10-01T03:44:08.676Z,7.13
2022-10-01T03:46:35.000Z,7.38
2022-10-01T03:49:01.345Z,8.15
2022-10-01T03:51:28.910Z,7.60
2022-10-01T03:53:56.518Z,7.47
2022-10-01T03:56:23.978Z,8.85
2022-10-01T03:58:50.901Z,6.47
2022-10-01T04:01:17.706Z,6.88
2022-10-01T04:03:44.316Z,7.03
2022-10-01T04:06:11.452Z,7.10
2022-10-01T04:08:38.654Z,7.07
2022-10-01T04:11:08.340Z,6.72
2022-10-01T04:13:35.029Z,7.53
2022-10-01T04:16:05.561Z,6.35
2022-10-01T04:18:32.702Z,6.80
2022-10-01T04:20:59.081Z,6.65
2022-10-01T04:23:25.782Z,11.75
2022-10-01T04:25:52.506Z,6.85
2022-10-01T04:28:19.291Z,7.43
2022-10-01T04:30:46.508Z,7.80
2022-10-01T04:33:15.451Z,7.43
2022-10-01T04:35:45.326Z,8.00
2022-10-01T04:38:18.262Z,7.13
2022-10-01T04:40:44.841Z,8.50
2022-10-01T04:43:13.116Z,7.65
2022-10-01T04:45:39.691Z,21.08
2022-10-01T04:48:06.086Z,7.00
2022-10-01T04:50:32.672Z,8.73
2022-10-01T04:52:59.200Z,7.00
2022-10-01T04:55:25.862Z,7.85
2022-10-01T04:57:52.188Z,9.52
2022-10-01T05:00:21.594Z,20.88
2022-10-01T05:02:49.271Z,9.77
2022-10-01T05:05:17.550Z,8.63
2022-10-01T05:07:44.298Z,17.42
2022-10-01T05:10:14.352Z,11.88
2022-10-01T05:12:41.571Z,10.27
2022-10-01T05:15:08.648Z,8.02
2022-10-01T05:17:35.846Z,7.25
2022-10-01T05:20:03.607Z,7.45
2022-10-01T05:22:30.126Z,8.32
2022-10-01T05:24:58.974Z,7.40
2022-10-01T05:27:30.232Z,8.55
2022-10-01T05:29:57.068Z,8.18
2022-10-01T05:32:23.656Z,8.50
2022-10-01T05:34:53.443Z,8.75
2022-10-01T05:37:20.117Z,11.68
2022-10-01T05:39:46.569Z,6.80
2022-10-01T05:42:13.033Z,9.05
2022-10-01T05:44:40.781Z,7.32
2022-10-01T05:47:07.248Z,8.77
2022-10-01T05:49:33.963Z,8.32
2022-10-01T05:52:00.844Z,9.52
2022-10-01T05:54:29.504Z,7.82
2022-10-01T05:56:58.627Z,10.35
2022-10-01T05:59:28.407Z,7.35
2022-10-01T06:01:57.529Z,5.97
2022-10-01T06:04:23.980Z,7.35
2022-10-01T06:06:50.468Z,6.05
2022-10-01T06:09:16.890Z,6.78
2022-10-01T06:11:43.339Z,6.43
2022-10-01T06:14:09.704Z,7.40
2022-10-01T06:16:36.148Z,10.02
2022-10-01T06:19:02.774Z,12.77
2022-10-01T06:21:30.305Z,6.68
2022-10-01T06:23:56.675Z,11.23
2022-10-01T06:26:24.099Z,6.68
2022-10-01T06:28:51.515Z,7.50
2022-10-01T06:31:18.843Z,7.65
2022-10-01T06:33:45.260Z,11.77
2022-10-01T06:36:11.771Z,13.82
2022-10-01T06:38:38.141Z,14.07
2022-10-01T06:41:05.221Z,10.20
2022-10-01T06:43:33.115Z,11.25
2022-10-01T06:46:03.698Z,29.17
2022-10-01T06:48:42.510Z,22.83
2022-10-01T06:51:08.855Z,7.18
2022-10-01T06:53:35.235Z,15.07
2022-10-01T06:56:06.532Z,5.95
2022-10-01T06:58:33.746Z,6.45
2022-10-01T07:01:01.865Z,6.85
2022-10-01T07:03:28.858Z,7.15
2022-10-01T07:06:02.116Z,7.22
2022-10-01T07:08:28.458Z,6.50
2022-10-01T07:11:00.367Z,6.15
2022-10-01T07:13:26.640Z,10.43
2022-10-01T07:15:52.944Z,7.05
2022-10-01T07:18:19.343Z,6.45
2022-10-01T07:20:45.896Z,8.85
2022-10-01T07:23:14.203Z,8.45
2022-10-01T07:25:44.243Z,6.97
2022-10-01T07:28:17.936Z,6.05
2022-10-01T07:31:01.249Z,6.93
2022-10-01T07:33:28.333Z,6.38
2022-10-01T07:35:55.119Z,5.82
2022-10-01T07:38:21.490Z,6.72
2022-10-01T07:40:52.151Z,6.10
2022-10-01T07:43:19.076Z,5.65
2022-10-01T07:45:47.043Z,7.47
2022-10-01T07:48:16.790Z,6.60
2022-10-01T07:50:45.158Z,6.57
2022-10-01T07:53:12.577Z,6.07
2022-10-01T07:55:39.116Z,6.47
2022-10-01T07:58:07.738Z,5.78
2022-10-01T08:00:34.968Z,6.10
2022-10-01T08:03:01.819Z,5.90
2022-10-01T08:05:31.211Z,8.98
2022-10-01T08:10:36.859Z,9.90
2022-10-01T08:13:14.745Z,7.35
2022-10-01T08:15:46.970Z,6.55
2022-10-01T08:18:13.917Z,6.53
2022-10-01T08:20:40.340Z,6.25
2022-10-01T08:23:10.216Z,6.22
2022-10-01T08:25:37.255Z,8.10
2022-10-01T08:28:04.459Z,7.45
2022-10-01T08:30:30.952Z,7.95
2022-10-01T08:32:59.071Z,8.30
2022-10-01T08:35:26.964Z,12.35
2022-10-01T08:37:56.473Z,8.68
2022-10-01T08:40:23.757Z,9.15
2022-10-01T08:43:16.056Z,5.55
2022-10-01T08:45:50.963Z,7.25
2022-10-01T08:48:50.031Z,8.32
2022-10-01T08:51:27.546Z,6.55
2022-10-01T08:54:07.735Z,5.53
2022-10-01T08:56:46.147Z,7.05
2022-10-01T08:59:33.698Z,5.82
2022-10-01T09:02:00.124Z,4.68
2022-10-01T09:04:27.860Z,5.05
2022-10-01T09:07:09.190Z,5.03
2022-10-01T09:09:47.575Z,4.50
2022-10-01T09:12:30.431Z,4.60
2022-10-01T09:15:44.703Z,4.68
2022-10-01T09:18:41.777Z,5.32
2022-10-01T09:21:24.326Z,4.20
2022-10-01T09:24:14.229Z,4.63
2022-10-01T09:26:46.470Z,4.18
2022-10-01T09:29:21.958Z,4.32
2022-10-01T09:31:50.289Z,3.83
2022-10-01T09:34:28.832Z,4.85
2022-10-01T09:37:14.692Z,4.47
2022-10-01T09:39:51.116Z,3.53
2022-10-01T09:42:18.356Z,3.67
2022-10-01T09:44:47.105Z,3.88
2022-10-01T09:47:20.118Z,3.92
2022-10-01T09:49:48.846Z,3.85
2022-10-01T09:52:27.058Z,4.07
2022-10-01T09:55:00.050Z,3.65
2022-10-01T09:57:37.856Z,4.22
2022-10-01T10:00:14.972Z,4.07
2022-10-01T10:02:48.800Z,3.90
2022-10-01T10:05:25.073Z,3.72
2022-10-01T10:07:57.181Z,4.18
2022-10-01T10:10:27.484Z,4.60
2022-10-01T10:13:11.045Z,3.72
2022-10-01T10:15:51.122Z,3.72
2022-10-01T10:18:29.891Z,4.25
2022-10-01T10:20:58.922Z,3.53
2022-10-01T10:23:26.735Z,3.15
2022-10-01T10:26:00.738Z,3.42
2022-10-01T10:28:28.897Z,3.75
2022-10-01T10:30:57.400Z,3.60
2022-10-01T10:33:26.292Z,3.25
2022-10-01T10:36:02.135Z,3.63
2022-10-01T10:38:33.526Z,3.83
2022-10-01T10:41:01.226Z,3.33
2022-10-01T10:43:34.618Z,2.92
2022-10-01T10:46:01.891Z,2.70
2022-10-01T10:48:41.894Z,2.75
2022-10-01T10:51:21.921Z,2.65
2022-10-01T10:54:01.931Z,2.63
2022-10-01T10:56:35.090Z,2.28
2022-10-01T10:59:08.319Z,2.13
2022-10-01T11:01:43.117Z,2.22
2022-10-01T11:04:24.874Z,1.80
2022-10-01T11:06:57.008Z,2.35
2022-10-01T11:09:29.882Z,2.08
2022-10-01T11:12:11.797Z,1.83
2022-10-01T11:15:09.985Z,1.75
2022-10-01T11:17:49.492Z,1.52
2022-10-01T11:21:01.957Z,1.42
2022-10-01T11:24:08.720Z,1.60
2022-10-01T11:26:42.106Z,1.77
2022-10-01T11:29:11.873Z,1.67
2022-10-01T11:31:52.069Z,1.13
2022-10-01T11:34:49.634Z,1.60
2022-10-01T11:37:32.681Z,1.15
2022-10-01T11:40:09.089Z,1.48
2022-10-01T11:42:37.867Z,1.42
2022-10-01T11:45:19.415Z,1.20
2022-10-01T11:47:53.670Z,1.65
2022-10-01T11:50:38.503Z,1.20
2022-10-01T11:53:20.826Z,0.98
2022-10-01T11:56:14.605Z,1.10
2022-10-01T11:58:57.063Z,1.63
2022-10-01T12:01:23.638Z,1.52
2022-10-01T12:04:17.298Z,2.10
2022-10-01T12:07:02.966Z,2.22
2022-10-01T12:10:01.426Z,1.10
2022-10-01T12:12:36.828Z,1.15
2022-10-01T12:15:21.669Z,1.25
2022-10-01T12:17:55.705Z,1.08
2022-10-01T12:20:38.237Z,1.00
2022-10-01T12:23:07.040Z,1.58
2022-10-01T12:25:58.071Z,1.40
2022-10-01T12:28:35.193Z,1.08
2022-10-01T12:31:12.826Z,1.48
2022-10-01T12:34:03.484Z,1.17
2022-10-01T12:36:48.403Z,1.20
2022-10-01T12:39:21.409Z,1.50
2022-10-01T12:42:16.972Z,1.60
2022-10-01T12:45:23.893Z,3.78
2022-10-01T12:48:27.960Z,1.38
2022-10-01T12:51:06.275Z,1.38
2022-10-01T12:54:03.820Z,1.33
2022-10-01T12:57:03.246Z,1.40
2022-10-01T12:59:59.124Z,1.25
2022-10-01T13:02:41.772Z,1.33
2022-10-01T13:05:48.723Z,1.50
2022-10-01T13:08:17.730Z,1.42
2022-10-01T13:10:54.089Z,1.30
2022-10-01T13:13:25.137Z,1.42
2022-10-01T13:15:58.587Z,1.20
2022-10-01T13:19:03.621Z,1.65
2022-10-01T13:21:45.453Z,1.17
2022-10-01T13:24:27.161Z,1.40
2022-10-01T13:27:16.520Z,1.80
2022-10-01T13:30:00.977Z,1.35
2022-10-01T13:32:33.204Z,1.17
2022-10-01T13:35:21.444Z,1.38
2022-10-01T13:37:47.769Z,1.23
2022-10-01T13:40:32.802Z,1.17
2022-10-01T13:43:21.355Z,1.30
2022-10-01T13:45:50.790Z,0.98
2022-10-01T13:48:31.255Z,1.58
2022-10-01T13:51:24.214Z,1.42
2022-10-01T13:54:07.252Z,0.93
2022-10-01T13:56:43.238Z,1.20
2022-10-01T13:59:33.181Z,1.45
2022-10-01T14:01:59.842Z,1.23
2022-10-01T14:04:41.826Z,1.20
2022-10-01T14:07:21.948Z,1.17
2022-10-01T14:09:56.600Z,1.08
2022-10-01T14:12:47.793Z,1.50
2022-10-01T14:15:57.085Z,1.10
2022-10-01T14:18:26.464Z,1.10
2022-10-01T14:21:25.643Z,1.52
2022-10-01T14:24:09.319Z,1.20
2022-10-01T14:26:51.557Z,1.40
2022-10-01T14:29:55.313Z,1.17
2022-10-01T14:32:31.748Z,0.93
2022-10-01T14:35:12.400Z,1.30
2022-10-01T14:37:39.304Z,0.98
2022-10-01T14:40:28.496Z,1.23
2022-10-01T14:43:06.446Z,1.30
2022-10-01T14:45:32.773Z,0.95
2022-10-01T14:48:04.592Z,1.02
2022-10-01T14:50:38.246Z,1.65
2022-10-01T14:53:06.230Z,1.20
2022-10-01T14:55:34.908Z,1.25
2022-10-01T14:58:01.399Z,1.52
2022-10-01T15:00:30.319Z,1.25
2022-10-01T15:03:13.066Z,1.15
2022-10-01T15:05:39.416Z,1.27
2022-10-01T15:08:42.929Z,1.23
2022-10-01T15:11:42.120Z,1.08
2022-10-01T15:14:23.428Z,1.50
2022-10-01T15:16:57.412Z,1.77
2022-10-01T15:19:23.864Z,1.60
2022-10-01T15:21:54.479Z,1.30
2022-10-01T15:24:47.056Z,1.75
2022-10-01T15:27:17.221Z,1.33
2022-10-01T15:29:45.103Z,1.40
2022-10-01T15:32:16.688Z,1.25
2022-10-01T15:34:48.204Z,0.90
2022-10-01T15:37:30.832Z,1.50
2022-10-01T15:39:58.714Z,1.40
2022-10-01T15:42:28.141Z,1.33
2022-10-01T15:45:23.868Z,1.35
2022-10-01T15:47:52.143Z,1.50
2022-10-01T15:50:21.104Z,1.50
2022-10-01T15:52:50.378Z,1.13
2022-10-01T15:55:27.404Z,1.67
2022-10-01T15:58:15.571Z,1.40
2022-10-01T16:00:48.626Z,1.33
2022-10-01T16:03:25.934Z,1.42
2022-10-01T16:05:57.064Z,1.27
2022-10-01T16:08:32.732Z,1.63
2022-10-01T16:13:44.690Z,1.90
2022-10-01T16:18:43.991Z,2.20
2022-10-01T16:21:11.200Z,2.53
2022-10-01T16:23:40.378Z,2.17
2022-10-01T16:29:13.810Z,2.20
2022-10-01T16:31:43.866Z,1.92
2022-10-01T16:34:16.823Z,1.95
2022-10-01T16:36:44.382Z,2.30
2022-10-01T16:39:13.546Z,2.30
2022-10-01T16:44:06.736Z,1.77
2022-10-01T16:46:33.473Z,1.50
2022-10-01T16:49:06.524Z,1.45
2022-10-01T16:51:47.565Z,1.95
2022-10-01T16:54:20.663Z,1.63
2022-10-01T16:56:53.563Z,1.70
2022-10-01T16:59:28.569Z,1.60
2022-10-01T17:02:02.645Z,1.55
2022-10-01T17:04:39.577Z,1.55
2022-10-01T17:07:06.375Z,2.08
2022-10-01T17:09:39.567Z,2.20
2022-10-01T17:12:12.586Z,1.73
2022-10-01T17:14:39.069Z,1.83
2022-10-01T17:17:11.613Z,2.45
2022-10-01T17:19:44.595Z,2.47
2022-10-01T17:22:11.052Z,1.83
2022-10-01T17:24:43.599Z,2.05
2022-10-01T17:27:09.880Z,1.98
2022-10-01T17:29:37.039Z,1.92
2022-10-01T17:32:03.466Z,1.75
2022-10-01T17:34:29.809Z,1.40
2022-10-01T17:36:56.149Z,1.48
2022-10-01T17:39:22.468Z,1.50
2022-10-01T17:41:48.792Z,1.48
2022-10-01T17:44:15.162Z,1.40
2022-10-01T17:46:41.463Z,1.70
2022-10-01T17:49:08.649Z,1.58
2022-10-01T17:51:35.072Z,1.75
2022-10-01T17:54:03.104Z,1.80
2022-10-01T17:56:38.681Z,1.98
2022-10-01T18:01:41.414Z,2.10
2022-10-01T18:04:18.825Z,1.60
2022-10-01T18:06:46.989Z,2.45
2022-10-01T18:09:19.678Z,1.80
2022-10-01T18:11:46.943Z,2.00
2022-10-01T18:14:13.483Z,1.83
2022-10-01T18:16:40.642Z,1.80
2022-10-01T18:19:52.376Z,1.75
2022-10-01T18:22:13.400Z,1.52
2022-10-01T18:24:47.758Z,2.67
2022-10-01T18:27:20.751Z,2.15
2022-10-01T18:29:47.065Z,1.77
2022-10-01T18:32:34.726Z,2.65
2022-10-01T18:35:02.614Z,2.20
2022-10-01T18:37:40.139Z,2.13
2022-10-01T18:40:19.412Z,1.90
2022-10-01T18:43:09.762Z,1.98
2022-10-01T18:46:10.794Z,1.70
2022-10-01T18:48:47.407Z,1.85
2022-10-01T18:51:40.824Z,2.08
2022-10-01T18:54:29.778Z,2.95
2022-10-01T18:57:17.369Z,2.10
2022-10-01T18:59:53.975Z,1.98
2022-10-01T19:02:33.978Z,4.68
2022-10-01T19:05:01.587Z,6.28
2022-10-01T19:07:57.305Z,2.15
2022-10-01T19:10:34.934Z,2.53
2022-10-01T19:13:34.837Z,1.85
2022-10-01T19:16:32.295Z,2.00
2022-10-01T19:19:23.422Z,2.17
2022-10-01T19:22:14.688Z,2.15
2022-10-01T19:25:11.698Z,2.25
2022-10-01T19:28:04.416Z,1.95
2022-10-01T19:30:59.132Z,2.40
2022-10-01T19:33:25.991Z,2.70
2022-10-01T19:35:56.672Z,2.55
2022-10-01T19:38:44.852Z,2.75
2022-10-01T19:41:20.442Z,2.13
2022-10-01T19:44:08.864Z,2.42
2022-10-01T19:46:40.715Z,3.10
2022-10-01T19:49:17.255Z,2.75
2022-10-01T19:52:00.461Z,3.33
2022-10-01T19:54:32.922Z,3.65
2022-10-01T19:57:15.864Z,2.55
2022-10-01T19:59:49.006Z,3.13
2022-10-01T20:02:33.914Z,2.58
2022-10-01T20:05:13.181Z,2.15
2022-10-01T20:08:10.898Z,2.65
2022-10-01T20:10:49.892Z,2.58
2022-10-01T20:13:44.937Z,2.78
2022-10-01T20:19:19.768Z,2.55
2022-10-01T20:21:53.755Z,2.75
2022-10-01T20:24:49.063Z,2.40
2022-10-01T20:27:49.646Z,2.55
2022-10-01T20:30:22.709Z,2.45
2022-10-01T20:33:07.975Z,2.22
2022-10-01T20:35:53.113Z,3.00
2022-10-01T20:38:24.605Z,4.00
2022-10-01T20:41:02.963Z,3.72
2022-10-01T20:43:44.559Z,3.65
2022-10-01T20:46:17.862Z,3.70
2022-10-01T20:48:49.357Z,3.70
2022-10-01T20:51:42.859Z,3.30
2022-10-01T20:54:16.442Z,3.15
2022-10-01T20:57:01.792Z,3.63
2022-10-01T20:59:41.194Z,3.15
2022-10-01T21:02:21.533Z,3.85
2022-10-01T21:04:53.844Z,4.13
2022-10-01T21:07:44.543Z,4.13
2022-10-01T21:11:00.044Z,4.47
2022-10-01T21:16:39.495Z,4.53
2022-10-01T21:19:18.523Z,3.70
2022-10-01T21:22:03.389Z,4.28
2022-10-01T21:24:51.667Z,3.80
2022-10-01T21:27:41.991Z,3.17
2022-10-01T21:30:15.812Z,3.25
2022-10-01T21:33:27.476Z,3.70
2022-10-01T21:36:02.423Z,3.30
2022-10-01T21:38:46.066Z,3.85
2022-10-01T21:41:34.097Z,4.40
2022-10-01T21:44:10.842Z,3.67
2022-10-01T21:46:48.425Z,4.05
2022-10-01T21:49:47.173Z,3.55
2022-10-01T21:52:50.121Z,3.20
2022-10-01T21:55:41.635Z,3.05
2022-10-01T21:58:40.114Z,3.28
2022-10-01T22:01:18.158Z,2.60
2022-10-01T22:04:07.211Z,3.47
2022-10-01T22:06:47.289Z,3.35
2022-10-01T22:09:32.522Z,2.85
2022-10-01T22:12:01.882Z,3.45
2022-10-01T22:14:30.053Z,2.92
2022-10-01T22:17:15.579Z,2.92
2022-10-01T22:19:47.703Z,2.83
2022-10-01T22:22:25.650Z,2.30
2022-10-01T22:24:54.087Z,2.80
2022-10-01T22:27:23.113Z,2.45
2022-10-01T22:29:55.091Z,2.72
2022-10-01T22:32:24.314Z,2.67
2022-10-01T22:35:00.947Z,3.70
2022-10-01T22:37:46.777Z,3.15
2022-10-01T22:40:23.164Z,2.83
2022-10-01T22:43:06.504Z,2.72
2022-10-01T22:45:46.632Z,2.83
2022-10-01T22:48:42.562Z,3.47
2022-10-01T22:51:27.892Z,2.70
2022-10-01T22:54:22.230Z,2.88
2022-10-01T22:57:00.236Z,2.65
2022-10-01T22:59:32.099Z,2.85
2022-10-01T23:02:16.757Z,2.80
2022-10-01T23:05:05.641Z,2.70
2022-10-01T23:07:45.506Z,3.13
2022-10-01T23:10:32.174Z,3.53
2022-10-01T23:13:16.929Z,3.80
2022-10-01T23:15:51.306Z,2.75
2022-10-01T23:18:35.121Z,2.75
2022-10-01T23:21:19.761Z,2.65
2022-10-01T23:23:56.782Z,2.72
2022-10-01T23:26:33.239Z,2.58
2022-10-01T23:29:25.128Z,2.50
2022-10-01T23:32:05.652Z,2.90
2022-10-01T23:34:48.288Z,2.90
2022-10-01T23:37:26.612Z,3.63
2022-10-01T23:40:02.666Z,3.40
2022-10-01T23:42:58.602Z,3.53
2022-10-01T23:45:32.160Z,3.17
2022-10-01T23:48:09.391Z,3.45
2022-10-01T23:50:50.702Z,3.58
2022-10-01T23:53:25.067Z,3.22
2022-10-01T23:56:19.253Z,3.17
2022-10-01T23:58:53.884Z,3.35
